sensor_id;sensor_type;location;lat;lon;timestamp;pressure;altitude;pressure_sealevel;temperature;humidity
49311;BME280;35177;45.900;5.946;2023-12-20T00:01:39;98304.91;;;1.35;100.00
49311;BME280;35177;45.900;5.946;2023-12-20T00:04:04;98298.78;;;1.38;100.00
49311;BME280;35177;45.900;5.946;2023-12-20T00:06:30;98291.91;;;1.32;100.00
49311;BME280;35177;45.900;5.946;2023-12-20T00:08:56;98291.16;;;1.26;100.00
49311;BME280;35177;45.900;5.946;2023-12-20T00:11:23;98274.75;;;1.21;100.00
49311;BME280;35177;45.900;5.946;2023-12-20T00:13:48;98258.28;;;1.20;100.00
49311;BME280;35177;45.900;5.946;2023-12-20T00:16:14;98276.13;;;1.42;100.00
49311;BME280;35177;45.900;5.946;2023-12-20T00:18:39;98280.34;;;1.49;100.00
49311;BME280;35177;45.900;5.946;2023-12-20T00:21:04;98277.69;;;1.50;100.00
49311;BME280;35177;45.900;5.946;2023-12-20T00:23:30;98279.38;;;1.51;100.00
49311;BME280;35177;45.900;5.946;2023-12-20T00:25:55;98296.72;;;1.55;100.00
49311;BME280;35177;45.900;5.946;2023-12-20T00:28:21;98285.47;;;1.52;100.00
49311;BME280;35177;45.900;5.946;2023-12-20T00:30:47;98290.53;;;1.59;100.00
49311;BME280;35177;45.900;5.946;2023-12-20T00:33:12;98284.28;;;1.68;100.00
49311;BME280;35177;45.900;5.946;2023-12-20T00:35:37;98268.53;;;1.74;100.00
49311;BME280;35177;45.900;5.946;2023-12-20T00:38:03;98268.41;;;1.78;100.00
49311;BME280;35177;45.900;5.946;2023-12-20T00:40:30;98276.19;;;1.80;100.00
49311;BME280;35177;45.900;5.946;2023-12-20T00:42:55;98279.72;;;1.79;100.00
49311;BME280;35177;45.900;5.946;2023-12-20T00:45:21;98278.78;;;1.81;100.00
49311;BME280;35177;45.900;5.946;2023-12-20T00:47:46;98268.22;;;1.87;100.00
49311;BME280;35177;45.900;5.946;2023-12-20T00:50:11;98282.91;;;1.91;100.00
49311;BME280;35177;45.900;5.946;2023-12-20T00:52:37;98287.19;;;1.95;100.00
49311;BME280;35177;45.900;5.946;2023-12-20T00:55:03;98277.53;;;1.99;100.00
49311;BME280;35177;45.900;5.946;2023-12-20T00:57:29;98278.41;;;1.99;100.00
49311;BME280;35177;45.900;5.946;2023-12-20T00:59:54;98274.22;;;1.92;100.00
49311;BME280;35177;45.900;5.946;2023-12-20T01:02:19;98269.81;;;1.53;100.00
49311;BME280;35177;45.900;5.946;2023-12-20T01:04:45;98273.44;;;1.46;100.00
49311;BME280;35177;45.900;5.946;2023-12-20T01:07:10;98276.69;;;1.57;100.00
49311;BME280;35177;45.900;5.946;2023-12-20T01:09:36;98270.63;;;1.55;100.00
49311;BME280;35177;45.900;5.946;2023-12-20T01:12:01;98252.28;;;1.60;100.00
49311;BME280;35177;45.900;5.946;2023-12-20T01:14:27;98253.88;;;1.65;100.00
49311;BME280;35177;45.900;5.946;2023-12-20T01:16:52;98257.56;;;1.57;100.00
49311;BME280;35177;45.900;5.946;2023-12-20T01:19:17;98255.75;;;1.60;100.00
49311;BME280;35177;45.900;5.946;2023-12-20T01:21:43;98261.59;;;1.71;100.00
49311;BME280;35177;45.900;5.946;2023-12-20T01:24:09;98270.22;;;1.76;100.00
49311;BME280;35177;45.900;5.946;2023-12-20T01:26:34;98270.94;;;1.83;100.00
49311;BME280;35177;45.900;5.946;2023-12-20T01:29:00;98275.28;;;1.82;100.00
49311;BME280;35177;45.900;5.946;2023-12-20T01:31:26;98276.94;;;1.86;100.00
49311;BME280;35177;45.900;5.946;2023-12-20T01:33:52;98281.22;;;1.89;100.00
49311;BME280;35177;45.900;5.946;2023-12-20T01:36:18;98284.66;;;1.92;100.00
49311;BME280;35177;45.900;5.946;2023-12-20T01:38:43;98288.97;;;1.93;100.00
49311;BME280;35177;45.900;5.946;2023-12-20T01:41:08;98273.75;;;1.74;100.00
49311;BME280;35177;45.900;5.946;2023-12-20T01:43:34;98284.00;;;1.81;100.00
49311;BME280;35177;45.900;5.946;2023-12-20T01:46:00;98288.13;;;1.91;100.00
49311;BME280;35177;45.900;5.946;2023-12-20T01:48:26;98299.50;;;1.90;100.00
49311;BME280;35177;45.900;5.946;2023-12-20T01:50:53;98291.56;;;1.93;100.00
49311;BME280;35177;45.900;5.946;2023-12-20T01:53:20;98289.09;;;1.87;100.00
49311;BME280;35177;45.900;5.946;2023-12-20T01:55:48;98275.91;;;1.93;100.00
49311;BME280;35177;45.900;5.946;2023-12-20T01:58:15;98271.50;;;1.97;100.00
49311;BME280;35177;45.900;5.946;2023-12-20T02:00:41;98266.47;;;1.88;100.00
49311;BME280;35177;45.900;5.946;2023-12-20T02:03:07;98272.63;;;1.85;100.00
49311;BME280;35177;45.900;5.946;2023-12-20T02:05:34;98265.66;;;1.86;100.00
49311;BME280;35177;45.900;5.946;2023-12-20T02:08:00;98252.66;;;1.83;100.00
49311;BME280;35177;45.900;5.946;2023-12-20T02:10:26;98256.03;;;1.88;100.00
49311;BME280;35177;45.900;5.946;2023-12-20T02:12:52;98261.16;;;1.92;100.00
49311;BME280;35177;45.900;5.946;2023-12-20T02:15:17;98252.44;;;1.93;100.00
49311;BME280;35177;45.900;5.946;2023-12-20T02:17:43;98260.34;;;1.90;100.00
49311;BME280;35177;45.900;5.946;2023-12-20T02:20:09;98256.00;;;1.89;100.00
49311;BME280;35177;45.900;5.946;2023-12-20T02:22:35;98251.50;;;1.96;100.00
49311;BME280;35177;45.900;5.946;2023-12-20T02:25:00;98251.53;;;1.94;100.00
49311;BME280;35177;45.900;5.946;2023-12-20T02:27:27;98247.81;;;2.06;100.00
49311;BME280;35177;45.900;5.946;2023-12-20T02:29:53;98239.06;;;2.08;100.00
49311;BME280;35177;45.900;5.946;2023-12-20T02:32:19;98251.19;;;2.11;100.00
49311;BME280;35177;45.900;5.946;2023-12-20T02:34:47;98251.31;;;2.05;100.00
49311;BME280;35177;45.900;5.946;2023-12-20T02:37:12;98245.09;;;2.10;100.00
49311;BME280;35177;45.900;5.946;2023-12-20T02:39:38;98248.56;;;2.11;100.00
49311;BME280;35177;45.900;5.946;2023-12-20T02:42:03;98246.84;;;2.10;100.00
49311;BME280;35177;45.900;5.946;2023-12-20T02:44:29;98240.69;;;2.13;100.00
49311;BME280;35177;45.900;5.946;2023-12-20T02:46:54;98241.41;;;2.19;100.00
49311;BME280;35177;45.900;5.946;2023-12-20T02:49:20;98238.78;;;2.21;100.00
49311;BME280;35177;45.900;5.946;2023-12-20T02:51:45;98234.28;;;2.27;100.00
49311;BME280;35177;45.900;5.946;2023-12-20T02:54:11;98239.38;;;2.32;100.00
49311;BME280;35177;45.900;5.946;2023-12-20T02:56:37;98243.81;;;2.28;100.00
49311;BME280;35177;45.900;5.946;2023-12-20T02:59:02;98235.97;;;2.30;100.00
49311;BME280;35177;45.900;5.946;2023-12-20T03:01:30;98225.50;;;2.30;100.00
49311;BME280;35177;45.900;5.946;2023-12-20T03:03:56;98225.63;;;2.24;100.00
49311;BME280;35177;45.900;5.946;2023-12-20T03:06:21;98227.97;;;2.36;100.00
49311;BME280;35177;45.900;5.946;2023-12-20T03:08:47;98228.94;;;2.32;100.00
49311;BME280;35177;45.900;5.946;2023-12-20T03:11:12;98225.69;;;2.22;100.00
49311;BME280;35177;45.900;5.946;2023-12-20T03:13:38;98231.66;;;2.27;100.00
49311;BME280;35177;45.900;5.946;2023-12-20T03:16:10;98231.78;;;2.21;100.00
49311;BME280;35177;45.900;5.946;2023-12-20T03:18:36;98232.75;;;2.17;100.00
49311;BME280;35177;45.900;5.946;2023-12-20T03:21:01;98223.94;;;2.23;100.00
49311;BME280;35177;45.900;5.946;2023-12-20T03:23:26;98229.13;;;2.24;100.00
49311;BME280;35177;45.900;5.946;2023-12-20T03:25:52;98225.56;;;2.27;100.00
49311;BME280;35177;45.900;5.946;2023-12-20T03:28:17;98220.28;;;2.30;100.00
49311;BME280;35177;45.900;5.946;2023-12-20T03:30:43;98223.94;;;2.21;100.00
49311;BME280;35177;45.900;5.946;2023-12-20T03:33:09;98224.78;;;2.23;100.00
49311;BME280;35177;45.900;5.946;2023-12-20T03:35:34;98217.81;;;2.24;100.00
49311;BME280;35177;45.900;5.946;2023-12-20T03:38:00;98219.06;;;2.07;100.00
49311;BME280;35177;45.900;5.946;2023-12-20T03:40:25;98215.47;;;2.11;100.00
49311;BME280;35177;45.900;5.946;2023-12-20T03:42:51;98210.94;;;2.20;100.00
49311;BME280;35177;45.900;5.946;2023-12-20T03:45:16;98217.78;;;2.25;100.00
49311;BME280;35177;45.900;5.946;2023-12-20T03:47:42;98217.81;;;2.24;100.00
49311;BME280;35177;45.900;5.946;2023-12-20T03:50:07;98216.22;;;2.18;100.00
49311;BME280;35177;45.900;5.946;2023-12-20T03:52:33;98216.94;;;2.25;100.00
49311;BME280;35177;45.900;5.946;2023-12-20T03:54:58;98221.13;;;2.30;100.00
49311;BME280;35177;45.900;5.946;2023-12-20T03:57:23;98218.63;;;2.26;100.00
49311;BME280;35177;45.900;5.946;2023-12-20T03:59:49;98217.69;;;2.30;100.00
49311;BME280;35177;45.900;5.946;2023-12-20T04:02:14;98215.13;;;2.27;100.00
49311;BME280;35177;45.900;5.946;2023-12-20T04:04:40;98204.63;;;2.30;100.00
49311;BME280;35177;45.900;5.946;2023-12-20T04:07:05;98211.53;;;2.31;100.00
49311;BME280;35177;45.900;5.946;2023-12-20T04:09:30;98215.94;;;2.29;100.00
49311;BME280;35177;45.900;5.946;2023-12-20T04:11:56;98208.91;;;2.32;100.00
49311;BME280;35177;45.900;5.946;2023-12-20T04:14:21;98198.47;;;2.32;100.00
49311;BME280;35177;45.900;5.946;2023-12-20T04:16:46;98201.31;;;2.22;100.00
49311;BME280;35177;45.900;5.946;2023-12-20T04:19:12;98196.09;;;2.22;100.00
49311;BME280;35177;45.900;5.946;2023-12-20T04:21:37;98191.06;;;2.14;100.00
49311;BME280;35177;45.900;5.946;2023-12-20T04:24:03;98189.47;;;2.08;100.00
49311;BME280;35177;45.900;5.946;2023-12-20T04:26:28;98191.31;;;2.03;100.00
49311;BME280;35177;45.900;5.946;2023-12-20T04:28:54;98193.72;;;2.13;100.00
49311;BME280;35177;45.900;5.946;2023-12-20T04:31:20;98200.56;;;2.18;100.00
49311;BME280;35177;45.900;5.946;2023-12-20T04:33:45;98199.63;;;2.21;100.00
49311;BME280;35177;45.900;5.946;2023-12-20T04:36:10;98191.69;;;2.24;100.00
49311;BME280;35177;45.900;5.946;2023-12-20T04:38:36;98190.81;;;2.25;100.00
49311;BME280;35177;45.900;5.946;2023-12-20T04:41:01;98180.31;;;2.28;100.00
49311;BME280;35177;45.900;5.946;2023-12-20T04:43:27;98178.41;;;2.33;100.00
49311;BME280;35177;45.900;5.946;2023-12-20T04:45:54;98181.13;;;2.30;100.00
49311;BME280;35177;45.900;5.946;2023-12-20T04:48:20;98179.34;;;2.30;100.00
49311;BME280;35177;45.900;5.946;2023-12-20T04:50:45;98182.88;;;2.29;100.00
49311;BME280;35177;45.900;5.946;2023-12-20T04:53:11;98186.41;;;2.27;100.00
49311;BME280;35177;45.900;5.946;2023-12-20T04:55:36;98184.50;;;2.33;100.00
49311;BME280;35177;45.900;5.946;2023-12-20T04:58:01;98187.88;;;2.38;100.00
49311;BME280;35177;45.900;5.946;2023-12-20T05:00:27;98182.53;;;2.43;100.00
49311;BME280;35177;45.900;5.946;2023-12-20T05:02:52;98181.78;;;2.38;100.00
49311;BME280;35177;45.900;5.946;2023-12-20T05:05:18;98189.50;;;2.44;100.00
49311;BME280;35177;45.900;5.946;2023-12-20T05:07:43;98182.59;;;2.40;100.00
49311;BME280;35177;45.900;5.946;2023-12-20T05:10:09;98182.59;;;2.40;100.00
49311;BME280;35177;45.900;5.946;2023-12-20T05:12:35;98183.50;;;2.39;100.00
49311;BME280;35177;45.900;5.946;2023-12-20T05:15:00;98182.69;;;2.37;100.00
49311;BME280;35177;45.900;5.946;2023-12-20T05:17:26;98185.31;;;2.37;100.00
49311;BME280;35177;45.900;5.946;2023-12-20T05:19:51;98187.00;;;2.39;100.00
49311;BME280;35177;45.900;5.946;2023-12-20T05:22:17;98185.31;;;2.37;100.00
49311;BME280;35177;45.900;5.946;2023-12-20T05:24:42;98180.91;;;2.39;100.00
49311;BME280;35177;45.900;5.946;2023-12-20T05:27:08;98183.50;;;2.39;100.00
49311;BME280;35177;45.900;5.946;2023-12-20T05:29:33;98185.31;;;2.37;100.00
49311;BME280;35177;45.900;5.946;2023-12-20T05:31:58;98181.00;;;2.34;100.00
49311;BME280;35177;45.900;5.946;2023-12-20T05:34:24;98186.19;;;2.36;100.00
49311;BME280;35177;45.900;5.946;2023-12-20T05:36:49;98190.53;;;2.37;100.00
49311;BME280;35177;45.900;5.946;2023-12-20T05:39:15;98192.22;;;2.38;100.00
49311;BME280;35177;45.900;5.946;2023-12-20T05:41:40;98187.94;;;2.35;100.00
49311;BME280;35177;45.900;5.946;2023-12-20T05:44:06;98183.63;;;2.33;100.00
49311;BME280;35177;45.900;5.946;2023-12-20T05:46:31;98182.66;;;2.38;100.00
49311;BME280;35177;45.900;5.946;2023-12-20T05:48:56;98187.81;;;2.40;100.00
49311;BME280;35177;45.900;5.946;2023-12-20T05:51:22;98184.44;;;2.36;100.00
49311;BME280;35177;45.900;5.946;2023-12-20T05:53:47;98194.19;;;2.30;100.00
49311;BME280;35177;45.900;5.946;2023-12-20T05:56:15;98192.22;;;2.38;100.00
49311;BME280;35177;45.900;5.946;2023-12-20T05:58:40;98186.34;;;2.30;100.00
49311;BME280;35177;45.900;5.946;2023-12-20T06:01:06;98199.28;;;2.34;100.00
49311;BME280;35177;45.900;5.946;2023-12-20T06:03:33;98208.81;;;2.37;100.00
49311;BME280;35177;45.900;5.946;2023-12-20T06:05:59;98211.31;;;2.40;100.00
49311;BME280;35177;45.900;5.946;2023-12-20T06:08:25;98213.94;;;2.40;100.00
49311;BME280;35177;45.900;5.946;2023-12-20T06:10:51;98206.22;;;2.35;100.00
49311;BME280;35177;45.900;5.946;2023-12-20T06:13:16;98207.91;;;2.38;100.00
49311;BME280;35177;45.900;5.946;2023-12-20T06:15:42;98210.50;;;2.39;100.00
49311;BME280;35177;45.900;5.946;2023-12-20T06:18:07;98208.75;;;2.38;100.00
49311;BME280;35177;45.900;5.946;2023-12-20T06:20:33;98200.22;;;2.32;100.00
49311;BME280;35177;45.900;5.946;2023-12-20T06:22:58;98207.25;;;2.30;100.00
49311;BME280;35177;45.900;5.946;2023-12-20T06:25:24;98217.56;;;2.34;100.00
49311;BME280;35177;45.900;5.946;2023-12-20T06:27:50;98219.28;;;2.35;100.00
49311;BME280;35177;45.900;5.946;2023-12-20T06:30:16;98209.69;;;2.36;100.00
49311;BME280;35177;45.900;5.946;2023-12-20T06:32:41;98209.63;;;2.39;100.00
49311;BME280;35177;45.900;5.946;2023-12-20T06:35:08;98206.09;;;2.41;100.00
49311;BME280;35177;45.900;5.946;2023-12-20T06:37:34;98223.56;;;2.38;100.00
49311;BME280;35177;45.900;5.946;2023-12-20T06:39:59;98222.69;;;2.39;100.00
49311;BME280;35177;45.900;5.946;2023-12-20T06:42:25;98223.44;;;2.44;100.00
49311;BME280;35177;45.900;5.946;2023-12-20T06:44:50;98216.59;;;2.38;100.00
49311;BME280;35177;45.900;5.946;2023-12-20T06:47:16;98211.63;;;2.28;100.00
49311;BME280;35177;45.900;5.946;2023-12-20T06:49:41;98203.06;;;2.21;100.00
49311;BME280;35177;45.900;5.946;2023-12-20T06:52:07;98200.47;;;2.21;100.00
49311;BME280;35177;45.900;5.946;2023-12-20T06:54:32;98211.75;;;2.22;100.00
49311;BME280;35177;45.900;5.946;2023-12-20T06:57:00;98217.69;;;2.28;100.00
49311;BME280;35177;45.900;5.946;2023-12-20T06:59:26;98214.91;;;2.36;100.00
49311;BME280;35177;45.900;5.946;2023-12-20T07:01:51;98213.91;;;2.41;100.00
49311;BME280;35177;45.900;5.946;2023-12-20T07:04:16;98214.69;;;2.45;100.00
49311;BME280;35177;45.900;5.946;2023-12-20T07:06:49;98220.72;;;2.47;100.00
49311;BME280;35177;45.900;5.946;2023-12-20T07:09:21;98231.28;;;2.44;100.00
49311;BME280;35177;45.900;5.946;2023-12-20T07:11:47;98232.84;;;2.49;100.00
49311;BME280;35177;45.900;5.946;2023-12-20T07:14:12;98233.66;;;2.53;100.00
49311;BME280;35177;45.900;5.946;2023-12-20T07:16:38;98229.06;;;2.62;100.00
49311;BME280;35177;45.900;5.946;2023-12-20T07:19:03;98223.75;;;2.65;100.00
49311;BME280;35177;45.900;5.946;2023-12-20T07:21:29;98226.41;;;2.64;100.00
49311;BME280;35177;45.900;5.946;2023-12-20T07:23:54;98228.84;;;2.71;100.00
49311;BME280;35177;45.900;5.946;2023-12-20T07:26:19;98233.13;;;2.74;100.00
49311;BME280;35177;45.900;5.946;2023-12-20T07:28:46;98237.50;;;2.72;100.00
49311;BME280;35177;45.900;5.946;2023-12-20T07:31:11;98238.50;;;2.68;100.00
49311;BME280;35177;45.900;5.946;2023-12-20T07:33:37;98235.22;;;2.60;100.00
49311;BME280;35177;45.900;5.946;2023-12-20T07:36:02;98229.31;;;2.52;100.00
49311;BME280;35177;45.900;5.946;2023-12-20T07:38:28;98248.28;;;2.60;100.00
49311;BME280;35177;45.900;5.946;2023-12-20T07:40:54;98256.97;;;2.60;100.00
49311;BME280;35177;45.900;5.946;2023-12-20T07:43:19;98253.34;;;2.66;100.00
49311;BME280;35177;45.900;5.946;2023-12-20T07:45:44;98255.03;;;2.68;100.00
49311;BME280;35177;45.900;5.946;2023-12-20T07:48:10;98261.03;;;2.72;100.00
49311;BME280;35177;45.900;5.946;2023-12-20T07:50:35;98256.69;;;2.72;100.00
49311;BME280;35177;45.900;5.946;2023-12-20T07:53:01;98262.75;;;2.73;100.00
49311;BME280;35177;45.900;5.946;2023-12-20T07:55:28;98256.53;;;2.78;100.00
49311;BME280;35177;45.900;5.946;2023-12-20T07:57:55;98261.78;;;2.77;100.00
49311;BME280;35177;45.900;5.946;2023-12-20T08:00:20;98260.09;;;2.74;100.00
49311;BME280;35177;45.900;5.946;2023-12-20T08:02:46;98263.59;;;2.75;100.00
49311;BME280;35177;45.900;5.946;2023-12-20T08:05:11;98267.09;;;2.74;100.00
49311;BME280;35177;45.900;5.946;2023-12-20T08:07:37;98277.41;;;2.80;100.00
49311;BME280;35177;45.900;5.946;2023-12-20T08:10:02;98283.44;;;2.82;100.00
49311;BME280;35177;45.900;5.946;2023-12-20T08:12:28;98289.59;;;2.79;100.00
49311;BME280;35177;45.900;5.946;2023-12-20T08:14:54;98289.06;;;2.65;100.00
49311;BME280;35177;45.900;5.946;2023-12-20T08:17:19;98289.72;;;2.75;100.00
49311;BME280;35177;45.900;5.946;2023-12-20T08:19:45;98285.41;;;2.74;100.00
49311;BME280;35177;45.900;5.946;2023-12-20T08:22:11;98285.94;;;2.87;100.00
49311;BME280;35177;45.900;5.946;2023-12-20T08:24:36;98284.13;;;2.90;100.00
49311;BME280;35177;45.900;5.946;2023-12-20T08:27:02;98291.13;;;2.88;100.00
49311;BME280;35177;45.900;5.946;2023-12-20T08:29:27;98291.16;;;2.87;100.00
49311;BME280;35177;45.900;5.946;2023-12-20T08:31:53;98299.13;;;2.82;100.00
49311;BME280;35177;45.900;5.946;2023-12-20T08:34:21;98292.91;;;2.86;100.00
49311;BME280;35177;45.900;5.946;2023-12-20T08:36:46;98292.84;;;2.89;100.00
49311;BME280;35177;45.900;5.946;2023-12-20T08:39:12;98283.91;;;2.98;100.00
49311;BME280;35177;45.900;5.946;2023-12-20T08:41:37;98290.81;;;3.00;100.00
49311;BME280;35177;45.900;5.946;2023-12-20T08:44:02;98294.31;;;3.01;100.00
49311;BME280;35177;45.900;5.946;2023-12-20T08:46:29;98294.97;;;3.09;100.00
49311;BME280;35177;45.900;5.946;2023-12-20T08:48:54;98287.53;;;3.27;100.00
49311;BME280;35177;45.900;5.946;2023-12-20T08:51:20;98291.44;;;3.43;100.00
49311;BME280;35177;45.900;5.946;2023-12-20T08:53:46;98298.31;;;3.47;100.00
49311;BME280;35177;45.900;5.946;2023-12-20T08:56:12;98284.09;;;3.58;100.00
49311;BME280;35177;45.900;5.946;2023-12-20T08:58:38;98283.66;;;3.73;100.00
49311;BME280;35177;45.900;5.946;2023-12-20T09:01:03;98288.59;;;3.83;100.00
49311;BME280;35177;45.900;5.946;2023-12-20T09:03:29;98287.13;;;3.73;100.00
49311;BME280;35177;45.900;5.946;2023-12-20T09:05:54;98305.31;;;3.78;100.00
49311;BME280;35177;45.900;5.946;2023-12-20T09:08:19;98288.81;;;3.76;100.00
49311;BME280;35177;45.900;5.946;2023-12-20T09:10:45;98296.47;;;3.82;100.00
49311;BME280;35177;45.900;5.946;2023-12-20T09:13:10;98299.13;;;4.11;100.00
49311;BME280;35177;45.900;5.946;2023-12-20T09:15:36;98294.09;;;4.33;100.00
49311;BME280;35177;45.900;5.946;2023-12-20T09:18:02;98300.38;;;4.27;100.00
49311;BME280;35177;45.900;5.946;2023-12-20T09:20:27;98300.75;;;4.15;100.00
49311;BME280;35177;45.900;5.946;2023-12-20T09:22:53;98305.00;;;4.47;100.00
49311;BME280;35177;45.900;5.946;2023-12-20T09:25:19;98312.41;;;4.89;100.00
49311;BME280;35177;45.900;5.946;2023-12-20T09:27:44;98305.59;;;5.10;100.00
49311;BME280;35177;45.900;5.946;2023-12-20T09:30:09;98300.59;;;5.03;100.00
49311;BME280;35177;45.900;5.946;2023-12-20T09:32:35;98301.53;;;5.26;100.00
49311;BME280;35177;45.900;5.946;2023-12-20T09:35:01;98299.00;;;5.49;100.00
49311;BME280;35177;45.900;5.946;2023-12-20T09:37:27;98292.25;;;6.38;100.00
49311;BME280;35177;45.900;5.946;2023-12-20T09:39:52;98293.63;;;7.53;95.98
49311;BME280;35177;45.900;5.946;2023-12-20T09:42:24;98293.16;;;7.24;97.26
49311;BME280;35177;45.900;5.946;2023-12-20T09:44:51;98294.88;;;8.24;91.19
49311;BME280;35177;45.900;5.946;2023-12-20T09:47:19;98296.53;;;8.99;89.04
49311;BME280;35177;45.900;5.946;2023-12-20T09:49:50;98296.81;;;8.00;90.45
49311;BME280;35177;45.900;5.946;2023-12-20T09:52:17;98295.25;;;8.72;87.00
49311;BME280;35177;45.900;5.946;2023-12-20T09:54:44;98299.50;;;7.18;93.09
49311;BME280;35177;45.900;5.946;2023-12-20T09:57:09;98291.91;;;6.01;100.00
49311;BME280;35177;45.900;5.946;2023-12-20T09:59:35;98289.47;;;5.96;100.00
49311;BME280;35177;45.900;5.946;2023-12-20T10:02:01;98300.31;;;5.87;100.00
49311;BME280;35177;45.900;5.946;2023-12-20T10:04:31;98298.13;;;5.49;100.00
49311;BME280;35177;45.900;5.946;2023-12-20T10:07:02;98296.09;;;5.32;100.00
49311;BME280;35177;45.900;5.946;2023-12-20T10:09:31;98298.28;;;5.20;100.00
49311;BME280;35177;45.900;5.946;2023-12-20T10:11:57;98294.63;;;4.98;100.00
49311;BME280;35177;45.900;5.946;2023-12-20T10:14:23;98289.50;;;4.95;100.00
49311;BME280;35177;45.900;5.946;2023-12-20T10:16:49;98292.03;;;4.71;100.00
49311;BME280;35177;45.900;5.946;2023-12-20T10:19:16;98284.84;;;4.76;100.00
49311;BME280;35177;45.900;5.946;2023-12-20T10:21:42;98295.03;;;4.59;100.00
49311;BME280;35177;45.900;5.946;2023-12-20T10:24:08;98288.97;;;4.57;100.00
49311;BME280;35177;45.900;5.946;2023-12-20T10:26:34;98287.72;;;4.69;100.00
49311;BME280;35177;45.900;5.946;2023-12-20T10:29:00;98278.50;;;4.83;100.00
49311;BME280;35177;45.900;5.946;2023-12-20T10:31:30;98270.03;;;4.75;100.00
49311;BME280;35177;45.900;5.946;2023-12-20T10:34:00;98272.09;;;4.66;100.00
49311;BME280;35177;45.900;5.946;2023-12-20T10:36:27;98268.31;;;4.74;100.00
49311;BME280;35177;45.900;5.946;2023-12-20T10:38:55;98269.94;;;4.78;100.00
49311;BME280;35177;45.900;5.946;2023-12-20T10:41:30;98264.00;;;4.73;100.00
49311;BME280;35177;45.900;5.946;2023-12-20T10:43:59;98260.13;;;4.83;100.00
49311;BME280;35177;45.900;5.946;2023-12-20T10:46:25;98261.50;;;4.95;100.00
49311;BME280;35177;45.900;5.946;2023-12-20T10:48:53;98254.50;;;4.96;100.00
49311;BME280;35177;45.900;5.946;2023-12-20T10:51:20;98246.31;;;5.05;100.00
49311;BME280;35177;45.900;5.946;2023-12-20T10:53:47;98251.25;;;5.14;100.00
49311;BME280;35177;45.900;5.946;2023-12-20T10:56:16;98240.63;;;5.43;100.00
49311;BME280;35177;45.900;5.946;2023-12-20T10:58:44;98239.38;;;5.76;100.00
49311;BME280;35177;45.900;5.946;2023-12-20T11:01:12;98227.81;;;5.82;100.00
49311;BME280;35177;45.900;5.946;2023-12-20T11:03:38;98233.69;;;5.90;100.00
49311;BME280;35177;45.900;5.946;2023-12-20T11:09:06;98221.63;;;6.51;100.00
49311;BME280;35177;45.900;5.946;2023-12-20T11:12:13;98223.19;;;6.76;100.00
49311;BME280;35177;45.900;5.946;2023-12-20T11:14:50;98227.44;;;6.80;100.00
49311;BME280;35177;45.900;5.946;2023-12-20T11:17:16;98223.81;;;7.25;100.00
49311;BME280;35177;45.900;5.946;2023-12-20T11:20:04;98214.13;;;7.05;100.00
49311;BME280;35177;45.900;5.946;2023-12-20T11:22:31;98220.66;;;6.32;100.00
49311;BME280;35177;45.900;5.946;2023-12-20T11:25:10;98220.69;;;6.08;100.00
49311;BME280;35177;45.900;5.946;2023-12-20T11:27:39;98224.44;;;5.78;100.00
49311;BME280;35177;45.900;5.946;2023-12-20T11:30:06;98215.09;;;5.71;100.00
49311;BME280;35177;45.900;5.946;2023-12-20T11:32:34;98222.31;;;5.64;100.00
49311;BME280;35177;45.900;5.946;2023-12-20T11:35:22;98221.16;;;5.72;100.00
49311;BME280;35177;45.900;5.946;2023-12-20T11:37:49;98218.38;;;5.76;100.00
49311;BME280;35177;45.900;5.946;2023-12-20T11:40:16;98222.75;;;6.00;100.00
49311;BME280;35177;45.900;5.946;2023-12-20T11:42:44;98217.94;;;6.11;100.00
49311;BME280;35177;45.900;5.946;2023-12-20T11:45:15;98210.28;;;6.50;100.00
49311;BME280;35177;45.900;5.946;2023-12-20T11:47:46;98206.59;;;6.76;100.00
49311;BME280;35177;45.900;5.946;2023-12-20T11:50:12;98193.88;;;6.65;100.00
49311;BME280;35177;45.900;5.946;2023-12-20T11:52:37;98192.59;;;6.10;100.00
49311;BME280;35177;45.900;5.946;2023-12-20T11:55:03;98192.41;;;6.15;100.00
49311;BME280;35177;45.900;5.946;2023-12-20T11:57:30;98190.53;;;6.40;100.00
49311;BME280;35177;45.900;5.946;2023-12-20T11:59:55;98201.72;;;6.45;100.00
49311;BME280;35177;45.900;5.946;2023-12-20T12:02:21;98193.25;;;6.59;100.00
49311;BME280;35177;45.900;5.946;2023-12-20T12:04:49;98185.50;;;6.56;100.00
49311;BME280;35177;45.900;5.946;2023-12-20T12:07:16;98191.84;;;6.07;100.00
49311;BME280;35177;45.900;5.946;2023-12-20T12:09:42;98184.66;;;6.34;100.00
49311;BME280;35177;45.900;5.946;2023-12-20T12:12:08;98168.25;;;6.90;100.00
49311;BME280;35177;45.900;5.946;2023-12-20T12:14:33;98173.22;;;7.37;99.57
49311;BME280;35177;45.900;5.946;2023-12-20T12:17:02;98174.28;;;7.71;95.13
49311;BME280;35177;45.900;5.946;2023-12-20T12:19:28;98172.44;;;7.92;92.84
49311;BME280;35177;45.900;5.946;2023-12-20T12:22:15;98166.41;;;8.27;88.30
49311;BME280;35177;45.900;5.946;2023-12-20T12:24:44;98161.28;;;8.43;90.19
49311;BME280;35177;45.900;5.946;2023-12-20T12:27:14;98172.66;;;8.44;86.67
49311;BME280;35177;45.900;5.946;2023-12-20T12:29:43;98167.53;;;8.22;85.66
49311;BME280;35177;45.900;5.946;2023-12-20T12:32:25;98168.88;;;8.12;85.53
49311;BME280;35177;45.900;5.946;2023-12-20T12:34:50;98171.97;;;8.03;84.76
49311;BME280;35177;45.900;5.946;2023-12-20T12:37:16;98180.50;;;7.89;84.16
49311;BME280;35177;45.900;5.946;2023-12-20T12:39:41;98175.28;;;7.69;83.13
49311;BME280;35177;45.900;5.946;2023-12-20T12:42:07;98176.22;;;7.68;84.09
49311;BME280;35177;45.900;5.946;2023-12-20T12:44:32;98173.06;;;7.60;84.17
49311;BME280;35177;45.900;5.946;2023-12-20T12:46:57;98170.13;;;7.47;84.24
49311;BME280;35177;45.900;5.946;2023-12-20T12:49:23;98169.34;;;7.45;82.98
49311;BME280;35177;45.900;5.946;2023-12-20T12:51:48;98179.09;;;7.43;84.56
49311;BME280;35177;45.900;5.946;2023-12-20T12:54:14;98186.56;;;7.34;84.57
49311;BME280;35177;45.900;5.946;2023-12-20T12:56:42;98181.81;;;7.22;83.69
49311;BME280;35177;45.900;5.946;2023-12-20T12:59:08;98187.13;;;7.20;83.37